createdAt,value
2017-06-19T00:01:49.248Z,7.17
2017-06-19T00:04:17.568Z,6.47
2017-06-19T00:06:45.153Z,7.00
2017-06-19T00:09:12.720Z,6.50
2017-06-19T00:11:40.254Z,6.40
2017-06-19T00:14:07.801Z,6.63
2017-06-19T00:16:35.388Z,6.63
2017-06-19T00:19:02.921Z,7.00
2017-06-19T00:21:36.185Z,7.47
2017-06-19T00:24:04.484Z,7.30
2017-06-19T00:26:32.029Z,7.40
2017-06-19T00:29:00.381Z,7.27
2017-06-19T00:31:27.909Z,7.10
2017-06-19T00:33:55.427Z,7.77
2017-06-19T00:36:23.761Z,7.60
2017-06-19T00:38:51.304Z,7.70
2017-06-19T00:41:18.929Z,6.90
2017-06-19T00:43:47.292Z,6.77
2017-06-19T00:46:14.845Z,7.40
2017-06-19T00:48:42.388Z,7.57
2017-06-19T00:51:09.952Z,6.73
2017-06-19T00:53:37.501Z,7.57
2017-06-19T00:56:05.026Z,7.77
2017-06-19T00:58:32.620Z,6.90
2017-06-19T01:01:00.138Z,7.10
2017-06-19T01:03:27.706Z,6.70
2017-06-19T01:05:55.288Z,7.50
2017-06-19T01:08:23.836Z,7.03
2017-06-19T01:10:52.204Z,7.87
2017-06-19T01:13:20.541Z,7.50
2017-06-19T01:15:48.065Z,8.63
2017-06-19T01:18:15.593Z,7.27
2017-06-19T01:20:43.161Z,7.93
2017-06-19T01:23:10.676Z,7.70
2017-06-19T01:25:38.207Z,7.70
2017-06-19T01:28:05.796Z,8.23
2017-06-19T01:30:33.324Z,7.60
2017-06-19T01:33:00.850Z,7.90
2017-06-19T01:35:28.432Z,7.57
2017-06-19T01:37:55.956Z,7.90
2017-06-19T01:40:23.482Z,7.00
2017-06-19T01:42:51.048Z,7.30
2017-06-19T01:45:18.584Z,8.33
2017-06-19T01:47:46.120Z,7.47
2017-06-19T01:50:13.701Z,8.27
2017-06-19T01:52:41.241Z,7.93
2017-06-19T01:55:09.536Z,7.80
2017-06-19T01:57:37.113Z,8.53
2017-06-19T02:00:04.635Z,7.93
2017-06-19T02:02:32.924Z,7.53
2017-06-19T02:05:00.497Z,7.90
2017-06-19T02:07:28.028Z,8.30
2017-06-19T02:09:55.566Z,8.30
2017-06-19T02:12:23.152Z,8.67
2017-06-19T02:14:50.676Z,8.73
2017-06-19T02:17:18.202Z,8.33
2017-06-19T02:19:45.768Z,7.73
2017-06-19T02:22:13.299Z,8.30
2017-06-19T02:24:41.603Z,9.00
2017-06-19T02:27:09.201Z,8.50
2017-06-19T02:29:36.722Z,8.23
2017-06-19T02:32:04.248Z,8.00
2017-06-19T02:34:31.826Z,8.20
2017-06-19T02:36:59.358Z,7.33
2017-06-19T02:39:26.873Z,7.90
2017-06-19T02:41:54.444Z,7.90
2017-06-19T02:44:21.970Z,7.43
2017-06-19T02:46:50.254Z,8.00
2017-06-19T02:49:17.823Z,8.40
2017-06-19T02:51:45.346Z,7.83
2017-06-19T02:54:12.873Z,8.37
2017-06-19T02:56:40.441Z,8.73
2017-06-19T02:59:07.953Z,8.00
2017-06-19T03:01:35.469Z,8.10
2017-06-19T03:04:03.048Z,9.13
2017-06-19T03:06:30.573Z,9.80
2017-06-19T03:08:58.091Z,8.80
2017-06-19T03:11:25.662Z,7.97
2017-06-19T03:13:53.188Z,8.50
2017-06-19T03:16:21.474Z,8.83
2017-06-19T03:18:49.070Z,8.23
2017-06-19T03:21:16.579Z,9.10
2017-06-19T03:23:44.111Z,9.87
2017-06-19T03:26:11.682Z,9.03
2017-06-19T03:28:39.202Z,8.87
2017-06-19T03:31:06.717Z,7.90
2017-06-19T03:33:34.316Z,8.20
2017-06-19T03:36:01.847Z,7.93
2017-06-19T03:38:30.128Z,8.83
2017-06-19T03:40:58.451Z,8.33
2017-06-19T03:43:25.977Z,8.10
2017-06-19T03:45:54.263Z,7.73
2017-06-19T03:48:21.842Z,7.90
2017-06-19T03:50:49.372Z,9.80
2017-06-19T03:53:16.903Z,8.90
2017-06-19T03:55:44.480Z,8.20
2017-06-19T03:58:12.797Z,7.07
2017-06-19T04:00:40.319Z,7.60
2017-06-19T04:03:08.657Z,8.00
2017-06-19T04:05:36.180Z,7.97
2017-06-19T04:08:03.745Z,8.67
2017-06-19T04:10:31.636Z,8.17
2017-06-19T04:12:59.169Z,8.70
2017-06-19T04:15:26.686Z,8.20
2017-06-19T04:17:54.278Z,7.90
2017-06-19T04:20:22.569Z,8.90
2017-06-19T04:22:50.114Z,8.47
2017-06-19T04:25:18.516Z,8.00
2017-06-19T04:27:46.043Z,8.57
2017-06-19T04:30:14.322Z,7.33
2017-06-19T04:32:42.689Z,7.40
2017-06-19T04:35:10.209Z,8.33
2017-06-19T04:37:37.751Z,8.23
2017-06-19T04:40:05.330Z,8.83
2017-06-19T04:42:32.862Z,8.67
2017-06-19T04:45:00.421Z,9.73
2017-06-19T04:47:28.011Z,7.67
2017-06-19T04:49:55.526Z,8.30
2017-06-19T04:52:23.061Z,8.20
2017-06-19T04:54:50.652Z,9.20
2017-06-19T04:57:18.210Z,8.27
2017-06-19T04:59:46.506Z,9.10
2017-06-19T05:02:14.078Z,7.80
2017-06-19T05:04:41.622Z,8.27
2017-06-19T05:07:09.145Z,8.13
2017-06-19T05:09:36.711Z,8.97
2017-06-19T05:12:04.234Z,8.97
2017-06-19T05:14:31.768Z,8.17
2017-06-19T05:16:59.350Z,7.93
2017-06-19T05:19:26.872Z,7.63
2017-06-19T05:21:55.195Z,7.87
2017-06-19T05:24:22.774Z,8.30
2017-06-19T05:26:50.309Z,7.80
2017-06-19T05:29:17.853Z,7.83
2017-06-19T05:31:45.422Z,7.70
2017-06-19T05:34:12.942Z,7.70
2017-06-19T05:36:40.477Z,7.43
2017-06-19T05:39:08.058Z,7.83
2017-06-19T05:41:36.365Z,7.47
2017-06-19T05:44:03.941Z,7.33
2017-06-19T05:46:31.528Z,7.93
2017-06-19T05:48:59.047Z,7.17
2017-06-19T05:51:26.593Z,7.40
2017-06-19T05:53:54.945Z,8.30
2017-06-19T05:56:22.490Z,7.03
2017-06-19T05:58:50.008Z,7.60
2017-06-19T06:01:20.698Z,6.50
2017-06-19T06:03:48.221Z,6.73
2017-06-19T06:06:15.752Z,6.67
2017-06-19T06:08:43.330Z,7.00
2017-06-19T06:11:10.848Z,6.83
2017-06-19T06:13:39.198Z,7.53
2017-06-19T06:16:06.784Z,6.83
2017-06-19T06:18:34.318Z,6.83
2017-06-19T06:21:01.861Z,6.23
2017-06-19T06:23:29.428Z,6.67
2017-06-19T06:25:56.981Z,6.20
2017-06-19T06:28:24.523Z,6.80
2017-06-19T06:30:52.111Z,5.73
2017-06-19T06:33:19.639Z,7.30
2017-06-19T06:35:47.227Z,5.90
2017-06-19T06:38:14.814Z,6.03
2017-06-19T06:40:42.342Z,6.10
2017-06-19T06:43:09.874Z,5.67
2017-06-19T06:45:37.481Z,5.73
2017-06-19T06:48:05.035Z,6.10
2017-06-19T06:50:32.581Z,6.63
2017-06-19T06:53:00.159Z,6.23
2017-06-19T06:55:27.685Z,5.83
2017-06-19T06:57:55.233Z,5.80
2017-06-19T07:00:22.812Z,6.43
2017-06-19T07:02:50.359Z,6.10
2017-06-19T07:05:17.871Z,6.20
2017-06-19T07:07:45.738Z,5.30
2017-06-19T07:10:13.310Z,5.50
2017-06-19T07:12:41.642Z,6.03
2017-06-19T07:15:09.532Z,5.60
2017-06-19T07:17:37.057Z,6.90
2017-06-19T07:20:04.593Z,5.80
2017-06-19T07:22:34.784Z,5.00
2017-06-19T07:25:02.329Z,5.70
2017-06-19T07:27:29.856Z,4.77
2017-06-19T07:29:57.686Z,4.30
2017-06-19T07:32:25.268Z,4.93
2017-06-19T07:34:53.552Z,5.13
2017-06-19T07:37:22.189Z,5.03
2017-06-19T07:39:49.728Z,4.53
2017-06-19T07:42:21.876Z,4.70
2017-06-19T07:44:49.763Z,4.43
2017-06-19T07:47:17.300Z,4.37
2017-06-19T07:49:44.815Z,4.10
2017-06-19T07:52:12.652Z,4.50
2017-06-19T07:54:40.185Z,4.63
2017-06-19T07:57:07.698Z,5.10
2017-06-19T07:59:35.545Z,5.90
2017-06-19T08:02:03.071Z,5.00
2017-06-19T08:04:31.368Z,4.57
2017-06-19T08:06:59.172Z,5.07
2017-06-19T08:09:26.706Z,4.43
2017-06-19T08:11:54.250Z,4.67
2017-06-19T08:14:22.105Z,4.47
2017-06-19T08:16:49.636Z,5.10
2017-06-19T08:19:17.170Z,4.50
2017-06-19T08:21:50.775Z,4.93
2017-06-19T08:24:18.305Z,4.50
2017-06-19T08:26:45.858Z,5.00
2017-06-19T08:29:13.763Z,4.40
2017-06-19T08:31:41.282Z,4.20
2017-06-19T08:34:08.809Z,4.63
2017-06-19T08:36:36.629Z,4.60
2017-06-19T08:39:04.180Z,4.60
2017-06-19T08:41:31.729Z,4.30
2017-06-19T08:43:59.627Z,4.10
2017-06-19T08:46:27.173Z,4.33
2017-06-19T08:48:54.697Z,4.40
2017-06-19T08:51:23.280Z,4.60
2017-06-19T08:53:51.577Z,3.53
2017-06-19T08:56:19.104Z,4.30
2017-06-19T08:58:46.951Z,4.47
2017-06-19T09:01:14.476Z,4.43
2017-06-19T09:03:42.005Z,4.27
2017-06-19T09:06:09.919Z,4.43
2017-06-19T09:08:37.489Z,3.93
2017-06-19T09:11:05.021Z,3.77
2017-06-19T09:13:32.922Z,4.50
2017-06-19T09:16:00.441Z,3.90
2017-06-19T09:18:27.984Z,4.40
2017-06-19T09:20:55.915Z,4.00
2017-06-19T09:23:23.437Z,3.83
2017-06-19T09:25:50.961Z,4.10
2017-06-19T09:28:20.212Z,4.30
2017-06-19T09:30:47.761Z,4.20
2017-06-19T09:33:15.293Z,3.93
2017-06-19T09:35:43.113Z,4.70
2017-06-19T09:38:10.632Z,3.97
2017-06-19T09:40:38.159Z,3.93
2017-06-19T09:43:05.984Z,3.60
2017-06-19T09:45:33.504Z,3.70
2017-06-19T09:48:01.065Z,3.90
2017-06-19T09:50:28.888Z,4.43
2017-06-19T09:52:56.408Z,3.60
2017-06-19T09:55:25.854Z,4.07
2017-06-19T09:57:53.864Z,3.83
2017-06-19T10:00:22.168Z,4.00
2017-06-19T10:02:49.690Z,4.30
2017-06-19T10:05:17.718Z,3.67
2017-06-19T10:07:45.261Z,3.87
2017-06-19T10:10:13.116Z,3.60
2017-06-19T10:18:18.696Z,4.43
2017-06-19T10:20:47.336Z,4.23
2017-06-19T10:23:27.808Z,4.00
2017-06-19T10:25:55.372Z,3.80
2017-06-19T10:28:22.929Z,3.80
2017-06-19T10:30:59.729Z,4.00
2017-06-19T10:33:28.095Z,3.80
2017-06-19T10:38:49.674Z,2.93
2017-06-19T10:41:33.955Z,2.80
2017-06-19T10:44:09.105Z,3.17
2017-06-19T10:46:37.505Z,3.17
2017-06-19T10:49:05.088Z,3.50
2017-06-19T10:57:54.088Z,4.20
2017-06-19T11:00:22.852Z,3.57
2017-06-19T11:02:50.440Z,4.30
2017-06-19T11:05:18.360Z,2.73
2017-06-19T11:10:45.177Z,2.67
2017-06-19T11:21:51.586Z,2.60
2017-06-19T11:24:33.228Z,3.10
2017-06-19T11:33:07.028Z,27.83
2017-06-19T11:35:55.499Z,18.63
2017-06-19T11:38:29.250Z,18.20
2017-06-19T11:41:02.909Z,28.43
2017-06-19T11:43:31.507Z,34.17
2017-06-19T11:45:59.042Z,15.47
2017-06-19T11:51:25.964Z,9.33
2017-06-19T11:53:53.489Z,6.60
2017-06-19T11:56:21.013Z,6.40
2017-06-19T11:58:52.574Z,5.73
2017-06-19T12:01:28.539Z,8.93
2017-06-19T12:06:55.525Z,21.10
2017-06-19T12:09:30.926Z,19.50
2017-06-19T12:12:02.268Z,11.07
2017-06-19T12:14:35.592Z,15.17
2017-06-19T12:17:03.424Z,17.07
2017-06-19T12:19:30.978Z,16.30
2017-06-19T12:21:58.536Z,16.90
2017-06-19T12:24:26.395Z,13.43
2017-06-19T12:26:53.932Z,14.13
2017-06-19T12:29:21.471Z,16.20
2017-06-19T12:31:49.405Z,14.20
2017-06-19T12:34:16.984Z,10.20
2017-06-19T12:36:44.527Z,9.83
2017-06-19T12:39:12.461Z,6.30
2017-06-19T12:41:41.280Z,7.47
2017-06-19T12:44:08.809Z,7.67
2017-06-19T12:46:36.656Z,4.77
2017-06-19T12:49:04.969Z,3.67
2017-06-19T12:51:32.521Z,3.90
2017-06-19T12:54:00.346Z,3.50
2017-06-19T12:56:28.647Z,3.53
2017-06-19T12:58:56.176Z,3.57
2017-06-19T13:01:24.024Z,3.60
2017-06-19T13:03:51.556Z,3.50
2017-06-19T13:06:19.107Z,3.30
2017-06-19T13:08:47.008Z,3.20
2017-06-19T13:11:14.566Z,3.17
2017-06-19T13:13:42.088Z,3.67
2017-06-19T13:16:10.708Z,3.23
2017-06-19T13:18:38.285Z,3.27
2017-06-19T13:21:05.821Z,2.83
2017-06-19T13:23:33.668Z,2.70
2017-06-19T13:26:01.195Z,2.77
2017-06-19T13:28:28.715Z,2.77
2017-06-19T13:30:56.525Z,3.00
2017-06-19T13:33:24.054Z,2.73
2017-06-19T13:35:51.580Z,2.80
2017-06-19T13:38:19.477Z,2.77
2017-06-19T13:40:47.004Z,2.83
2017-06-19T13:43:14.548Z,2.40
2017-06-19T13:45:42.365Z,2.80
2017-06-19T13:48:09.888Z,2.90
2017-06-19T13:50:38.310Z,2.97
2017-06-19T13:53:06.186Z,2.67
2017-06-19T13:55:33.712Z,2.80
2017-06-19T13:58:01.237Z,2.80
2017-06-19T14:00:29.875Z,2.47
2017-06-19T14:02:57.409Z,2.70
2017-06-19T14:05:24.961Z,3.00
2017-06-19T14:07:52.847Z,2.80
2017-06-19T14:10:20.373Z,2.50
2017-06-19T14:12:48.674Z,2.90
2017-06-19T14:15:16.493Z,2.60
2017-06-19T14:17:44.000Z,2.77
2017-06-19T14:20:11.524Z,3.00
2017-06-19T14:22:39.370Z,2.43
2017-06-19T14:25:06.906Z,2.73
2017-06-19T14:27:34.470Z,3.03
2017-06-19T14:30:02.302Z,2.40
2017-06-19T14:32:29.814Z,2.60
2017-06-19T14:34:57.348Z,2.70
2017-06-19T14:37:25.233Z,2.20
2017-06-19T14:39:52.759Z,2.50
2017-06-19T14:42:20.311Z,2.60
2017-06-19T14:44:48.220Z,2.70
2017-06-19T14:47:15.746Z,2.20
2017-06-19T14:49:43.268Z,2.33
2017-06-19T14:52:11.134Z,2.13
2017-06-19T14:54:38.659Z,2.20
2017-06-19T14:57:06.189Z,2.47
2017-06-19T14:59:34.097Z,2.27
2017-06-19T15:02:01.618Z,2.80
2017-06-19T15:04:29.151Z,2.90
2017-06-19T15:06:57.090Z,3.10
2017-06-19T15:09:24.636Z,2.67
2017-06-19T15:11:52.175Z,2.60
2017-06-19T15:14:20.003Z,3.13
2017-06-19T15:16:47.540Z,3.27
2017-06-19T15:19:15.070Z,2.93
2017-06-19T15:21:48.485Z,2.90
2017-06-19T15:24:16.035Z,2.70
2017-06-19T15:26:43.560Z,2.43
2017-06-19T15:29:12.144Z,4.67
2017-06-19T15:31:40.443Z,2.60
2017-06-19T15:34:07.987Z,3.43
2017-06-19T15:36:35.806Z,2.93
2017-06-19T15:39:03.349Z,3.43
2017-06-19T15:41:30.876Z,2.60
2017-06-19T15:43:59.449Z,4.00
2017-06-19T15:46:27.754Z,2.57
2017-06-19T15:48:55.288Z,2.90
2017-06-19T15:51:23.915Z,3.20
2017-06-19T15:53:51.453Z,2.83
2017-06-19T15:56:18.978Z,2.73
2017-06-19T15:58:46.813Z,2.70
2017-06-19T16:01:14.383Z,2.80
2017-06-19T16:03:41.900Z,3.10
2017-06-19T16:06:09.812Z,2.63
2017-06-19T16:08:37.346Z,2.50
2017-06-19T16:11:04.881Z,2.93
2017-06-19T16:13:33.510Z,2.73
2017-06-19T16:16:01.072Z,2.80
2017-06-19T16:18:28.627Z,3.07
2017-06-19T16:20:56.500Z,2.70
2017-06-19T16:23:24.034Z,2.83
2017-06-19T16:25:51.581Z,2.67
2017-06-19T16:28:19.504Z,2.20
2017-06-19T16:30:47.113Z,3.20
2017-06-19T16:33:14.627Z,2.70
2017-06-19T16:35:42.457Z,3.53
2017-06-19T16:38:09.995Z,2.50
2017-06-19T16:40:37.558Z,2.60
2017-06-19T16:43:05.471Z,2.10
2017-06-19T16:45:32.999Z,2.40
2017-06-19T16:48:00.532Z,2.13
2017-06-19T16:50:28.453Z,2.50
2017-06-19T16:52:56.001Z,2.20
2017-06-19T16:55:23.538Z,2.30
2017-06-19T16:57:51.361Z,2.13
2017-06-19T17:00:18.901Z,2.10
2017-06-19T17:02:46.450Z,2.30
2017-06-19T17:05:14.339Z,2.60
2017-06-19T17:07:41.866Z,2.20
2017-06-19T17:10:09.400Z,2.13
2017-06-19T17:12:37.302Z,1.80
2017-06-19T17:15:04.825Z,2.27
2017-06-19T17:17:33.149Z,2.10
2017-06-19T17:20:00.994Z,2.40
2017-06-19T17:22:28.530Z,2.90
2017-06-19T17:24:56.098Z,3.10
2017-06-19T17:27:23.953Z,3.27
2017-06-19T17:29:52.261Z,2.90
2017-06-19T17:32:19.839Z,2.50
2017-06-19T17:34:47.734Z,2.30
2017-06-19T17:37:15.334Z,2.13
2017-06-19T17:39:42.880Z,2.27
2017-06-19T17:42:10.715Z,2.50
2017-06-19T17:44:38.266Z,2.70
2017-06-19T17:47:05.807Z,2.93
2017-06-19T17:49:33.703Z,3.00
2017-06-19T17:52:01.237Z,2.73
2017-06-19T17:54:28.768Z,2.87
2017-06-19T17:56:56.605Z,3.00
2017-06-19T17:59:24.149Z,2.70
2017-06-19T18:01:51.697Z,2.40
2017-06-19T18:04:19.486Z,3.17
2017-06-19T18:06:47.033Z,2.90
2017-06-19T18:09:14.570Z,2.83
2017-06-19T18:11:42.503Z,3.00
2017-06-19T18:14:10.036Z,2.80
2017-06-19T18:16:37.559Z,5.60
2017-06-19T18:19:05.386Z,4.50
2017-06-19T18:21:33.704Z,3.00
2017-06-19T18:24:01.286Z,3.00
2017-06-19T18:26:29.094Z,2.87
2017-06-19T18:28:56.672Z,3.00
2017-06-19T18:31:24.229Z,3.03
2017-06-19T18:33:52.041Z,3.40
2017-06-19T18:36:19.571Z,3.30
2017-06-19T18:38:47.140Z,2.70
2017-06-19T18:41:14.997Z,3.97
2017-06-19T18:43:42.538Z,3.67
2017-06-19T18:46:10.161Z,3.30
2017-06-19T18:48:38.047Z,3.50
2017-06-19T18:51:07.035Z,3.13
2017-06-19T18:53:34.721Z,2.57
2017-06-19T18:56:07.891Z,2.80
2017-06-19T18:58:35.469Z,3.60
2017-06-19T19:03:43.052Z,3.97
2017-06-19T19:09:05.708Z,2.90
2017-06-19T19:11:33.236Z,4.33
2017-06-19T19:14:00.761Z,4.87
2017-06-19T19:16:28.705Z,4.50
2017-06-19T19:18:56.251Z,4.90
2017-06-19T19:21:23.788Z,4.63
2017-06-19T19:23:51.685Z,4.90
2017-06-19T19:26:19.287Z,6.83
2017-06-19T19:28:46.936Z,8.67
2017-06-19T19:31:14.713Z,5.77
2017-06-19T19:33:43.008Z,5.70
2017-06-19T19:36:11.325Z,6.20
2017-06-19T19:38:39.202Z,4.90
2017-06-19T19:41:06.734Z,4.30
2017-06-19T19:43:34.291Z,6.37
2017-06-19T19:46:02.187Z,11.20
2017-06-19T19:48:29.745Z,5.60
2017-06-19T19:50:57.364Z,6.77
2017-06-19T19:53:25.272Z,6.03
2017-06-19T19:55:52.803Z,6.90
2017-06-19T19:58:20.353Z,8.40
2017-06-19T20:00:48.345Z,8.90
2017-06-19T20:03:15.900Z,12.50
2017-06-19T20:05:43.436Z,7.70
2017-06-19T20:08:11.409Z,13.90
2017-06-19T20:10:44.820Z,12.53
2017-06-19T20:13:14.083Z,7.83
2017-06-19T20:15:45.034Z,6.60
2017-06-19T20:18:15.901Z,5.23
2017-06-19T20:20:49.439Z,7.07
2017-06-19T20:23:24.656Z,11.93
2017-06-19T20:25:55.598Z,7.03
2017-06-19T20:28:29.578Z,5.60
2017-06-19T20:31:03.291Z,5.77
2017-06-19T20:33:39.227Z,5.80
2017-06-19T20:36:09.983Z,6.40
2017-06-19T20:38:37.537Z,5.17
2017-06-19T20:41:06.184Z,13.03
2017-06-19T20:43:33.723Z,12.90
2017-06-19T20:46:01.294Z,11.70
2017-06-19T20:48:29.204Z,7.10
2017-06-19T20:50:57.573Z,5.97
2017-06-19T20:53:25.157Z,5.83
2017-06-19T20:55:53.142Z,7.40
2017-06-19T20:58:20.719Z,7.53
2017-06-19T21:00:48.247Z,6.13
2017-06-19T21:03:16.095Z,8.97
2017-06-19T21:05:44.424Z,10.30
2017-06-19T21:08:11.950Z,7.83
2017-06-19T21:10:39.751Z,6.00
2017-06-19T21:13:07.334Z,7.60
2017-06-19T21:15:34.918Z,7.87
2017-06-19T21:18:02.768Z,7.57
2017-06-19T21:20:30.300Z,5.43
2017-06-19T21:22:57.845Z,6.03
2017-06-19T21:25:25.773Z,5.97
2017-06-19T21:27:54.123Z,5.77
2017-06-19T21:30:21.691Z,6.93
2017-06-19T21:32:49.540Z,5.70
2017-06-19T21:35:17.080Z,6.00
2017-06-19T21:37:44.613Z,5.50
2017-06-19T21:40:13.237Z,5.70
2017-06-19T21:42:40.778Z,6.10
2017-06-19T21:45:08.337Z,5.60
2017-06-19T21:47:36.286Z,5.40
2017-06-19T21:50:04.628Z,6.47
2017-06-19T21:52:32.176Z,5.87
2017-06-19T21:55:00.069Z,5.77
2017-06-19T21:57:27.603Z,5.87
2017-06-19T21:59:55.582Z,5.60
2017-06-19T22:02:23.441Z,6.33
2017-06-19T22:04:50.979Z,5.67
2017-06-19T22:07:18.519Z,5.53
2017-06-19T22:09:46.452Z,6.00
2017-06-19T22:12:13.993Z,6.57
2017-06-19T22:14:41.556Z,5.60
2017-06-19T22:17:09.432Z,5.67
2017-06-19T22:19:36.977Z,6.33
2017-06-19T22:22:22.481Z,6.07
2017-06-19T22:24:50.031Z,7.10
2017-06-19T22:27:17.582Z,6.40
2017-06-19T22:29:45.424Z,6.53
2017-06-19T22:32:12.973Z,6.00
2017-06-19T22:34:41.282Z,6.77
2017-06-19T22:37:09.167Z,6.37
2017-06-19T22:39:36.701Z,6.40
2017-06-19T22:42:04.240Z,6.40
2017-06-19T22:44:32.161Z,6.00
2017-06-19T22:46:59.706Z,7.23
2017-06-19T22:49:27.246Z,6.97
2017-06-19T22:51:55.016Z,7.27
2017-06-19T22:54:22.539Z,6.90
2017-06-19T22:56:50.094Z,6.93
2017-06-19T22:59:18.013Z,6.33
2017-06-19T23:01:45.549Z,7.57
2017-06-19T23:04:13.085Z,7.00
2017-06-19T23:06:41.731Z,6.97
2017-06-19T23:09:09.269Z,6.93
2017-06-19T23:11:36.801Z,7.10
2017-06-19T23:14:05.450Z,7.17
2017-06-19T23:16:32.979Z,6.83
2017-06-19T23:19:00.509Z,7.10
2017-06-19T23:21:28.435Z,7.70
2017-06-19T23:23:55.983Z,6.93
2017-06-19T23:26:23.507Z,6.90
2017-06-19T23:28:51.323Z,7.63
2017-06-19T23:31:18.844Z,7.20
2017-06-19T23:33:46.409Z,7.53
2017-06-19T23:36:14.243Z,7.90
2017-06-19T23:38:41.778Z,7.70
2017-06-19T23:41:09.309Z,7.20
2017-06-19T23:43:37.159Z,7.33
2017-06-19T23:46:04.691Z,7.00
2017-06-19T23:48:32.217Z,7.93
2017-06-19T23:51:00.061Z,6.83
2017-06-19T23:53:27.587Z,7.57
2017-06-19T23:55:55.870Z,7.90
2017-06-19T23:58:23.779Z,7.70
